Time;durP1;ratioP1;P1;durP2;ratioP2;P2;SDS_P1;SDS_P2;PMS_P1;PMS_P2;Temp;Humidity;BMP_temperature;BMP_pressure;BME280_temperature;BME280_humidity;BME280_pressure;Samples;Min_cycle;Max_cycle;Signal;HPM_P1;HPM_P2
2020/12/22 00:00:13;;;;;;;78.57;24.97;;;;;;;;;;5060936;28;20212;-77
2020/12/22 00:03:18;;;;;;;75.03;24.30;;;;;;;;;;5069547;28;20203;-76
2020/12/22 00:06:24;;;;;;;66.30;23.43;;;;;;;;;;5062148;28;20191;-76
2020/12/22 00:09:29;;;;;;;76.77;25.80;;;;;;;;;;5059055;28;20257;-77
2020/12/22 00:12:34;;;;;;;64.37;22.30;;;;;;;;;;5062496;28;20737;-78
2020/12/22 00:15:39;;;;;;;63.50;22.57;;;;;;;;;;5040458;28;20292;-77
2020/12/22 00:18:44;;;;;;;60.47;22.27;;;;;;;;;;5040877;28;20660;-77
2020/12/22 00:21:49;;;;;;;65.33;23.57;;;;;;;;;;5039404;28;20246;-78
2020/12/22 00:24:54;;;;;;;66.90;22.53;;;;;;;;;;5055620;28;20207;-78
2020/12/22 00:27:59;;;;;;;65.53;23.63;;;;;;;;;;5057239;28;20254;-77
2020/12/22 00:31:04;;;;;;;63.20;22.37;;;;;;;;;;5046368;28;20734;-77
2020/12/22 00:34:08;;;;;;;61.70;23.90;;;;;;;;;;5038073;28;20212;-77
2020/12/22 00:37:14;;;;;;;67.43;22.33;;;;;;;;;;5021489;28;20251;-77
2020/12/22 00:40:19;;;;;;;60.13;21.60;;;;;;;;;;5044273;28;20243;-77
2020/12/22 00:43:24;;;;;;;56.20;22.10;;;;;;;;;;5041041;28;20219;-78
2020/12/22 00:46:29;;;;;;;57.37;20.70;;;;;;;;;;5021486;28;20200;-77
2020/12/22 00:49:34;;;;;;;64.20;22.83;;;;;;;;;;5018949;28;20200;-78
2020/12/22 00:52:39;;;;;;;58.67;21.27;;;;;;;;;;5026605;28;20263;-78
2020/12/22 00:55:47;;;;;;;59.50;21.47;;;;;;;;;;5062200;28;20614;-78
2020/12/22 00:58:53;;;;;;;59.57;21.23;;;;;;;;;;5044638;28;21294;-77
2020/12/22 01:02:03;;;;;;;66.90;21.37;;;;;;;;;;5061265;28;20266;-78
2020/12/22 01:05:09;;;;;;;53.97;20.37;;;;;;;;;;5065714;28;20206;-78
2020/12/22 01:08:14;;;;;;;55.27;20.63;;;;;;;;;;5053944;28;20232;-78
2020/12/22 01:11:22;;;;;;;67.37;24.40;;;;;;;;;;5050872;28;20227;-78
2020/12/22 01:14:27;;;;;;;66.90;22.53;;;;;;;;;;5053397;28;20206;-78
2020/12/22 01:17:32;;;;;;;63.50;22.13;;;;;;;;;;5056359;28;20671;-78
2020/12/22 01:20:37;;;;;;;65.70;22.27;;;;;;;;;;5057386;28;20231;-78
2020/12/22 01:23:42;;;;;;;69.33;23.50;;;;;;;;;;5057854;28;20206;-77
2020/12/22 01:26:47;;;;;;;68.90;21.80;;;;;;;;;;5049292;28;20281;-77
2020/12/22 01:29:53;;;;;;;71.00;23.77;;;;;;;;;;5065750;28;20238;-76
2020/12/22 01:32:59;;;;;;;61.03;22.07;;;;;;;;;;5053164;28;20226;-76
2020/12/22 01:36:04;;;;;;;61.90;22.67;;;;;;;;;;5061117;28;20263;-77
2020/12/22 01:39:09;;;;;;;65.00;22.73;;;;;;;;;;5045657;28;20218;-77
2020/12/22 01:42:14;;;;;;;57.50;20.47;;;;;;;;;;5044298;28;20234;-77
2020/12/22 01:45:19;;;;;;;61.50;21.27;;;;;;;;;;5045338;28;20211;-77
2020/12/22 01:48:25;;;;;;;57.53;22.03;;;;;;;;;;5046545;28;20219;-79
2020/12/22 01:51:33;;;;;;;56.27;20.70;;;;;;;;;;5051560;28;20332;-77
2020/12/22 01:54:44;;;;;;;53.73;20.23;;;;;;;;;;5071848;28;20279;-78
2020/12/22 01:57:55;;;;;;;61.20;20.53;;;;;;;;;;5061210;28;20250;-79
2020/12/22 02:01:00;;;;;;;48.77;18.97;;;;;;;;;;5025826;28;20259;-78
2020/12/22 02:04:05;;;;;;;53.50;20.53;;;;;;;;;;5038504;28;20195;-77
2020/12/22 02:07:12;;;;;;;55.57;20.97;;;;;;;;;;5043476;28;20207;-76
2020/12/22 02:10:18;;;;;;;56.47;20.47;;;;;;;;;;5051548;28;20683;-76
2020/12/22 02:13:23;;;;;;;58.17;20.27;;;;;;;;;;5037704;28;20214;-78
2020/12/22 02:16:34;;;;;;;51.47;19.93;;;;;;;;;;5043577;28;20243;-79
2020/12/22 02:19:39;;;;;;;63.30;21.40;;;;;;;;;;5049452;28;20587;-77
2020/12/22 02:22:46;;;;;;;57.90;20.70;;;;;;;;;;5042219;28;20223;-77
2020/12/22 02:25:51;;;;;;;62.87;22.63;;;;;;;;;;5044908;28;20216;-77
2020/12/22 02:28:56;;;;;;;60.40;22.10;;;;;;;;;;5048664;28;20271;-79
2020/12/22 02:32:01;;;;;;;63.57;21.83;;;;;;;;;;5056227;28;20218;-78
2020/12/22 02:35:06;;;;;;;63.17;22.57;;;;;;;;;;5047441;28;20346;-78
2020/12/22 02:38:12;;;;;;;61.87;21.87;;;;;;;;;;5056331;28;20219;-78
2020/12/22 02:41:17;;;;;;;63.20;21.77;;;;;;;;;;5031960;28;20292;-77
2020/12/22 02:44:23;;;;;;;64.67;22.87;;;;;;;;;;5048126;28;20221;-78
2020/12/22 02:47:28;;;;;;;66.73;23.90;;;;;;;;;;5043600;28;20208;-78
2020/12/22 02:50:33;;;;;;;61.70;22.43;;;;;;;;;;5056305;28;20630;-78
2020/12/22 02:53:38;;;;;;;68.23;22.80;;;;;;;;;;5047869;28;20203;-78
2020/12/22 02:56:45;;;;;;;65.43;22.10;;;;;;;;;;5055474;28;20361;-78
2020/12/22 02:59:50;;;;;;;63.70;21.97;;;;;;;;;;5058022;28;20234;-78
2020/12/22 03:02:55;;;;;;;63.90;20.67;;;;;;;;;;5049037;28;20226;-78
2020/12/22 03:06:00;;;;;;;62.23;21.27;;;;;;;;;;5062280;28;20254;-77
2020/12/22 03:09:06;;;;;;;64.73;22.90;;;;;;;;;;5049448;28;20254;-78
2020/12/22 03:12:11;;;;;;;67.63;23.40;;;;;;;;;;5048632;28;20226;-78
2020/12/22 03:15:17;;;;;;;67.80;22.10;;;;;;;;;;5066932;28;20241;-78
2020/12/22 03:18:22;;;;;;;63.90;22.63;;;;;;;;;;5055279;28;20215;-79
2020/12/22 03:21:27;;;;;;;57.87;21.20;;;;;;;;;;5037916;28;20239;-78
2020/12/22 03:24:34;;;;;;;63.97;22.27;;;;;;;;;;5050482;28;20211;-77
2020/12/22 03:27:40;;;;;;;58.83;20.90;;;;;;;;;;5048912;28;20677;-79
2020/12/22 03:30:45;;;;;;;60.83;20.73;;;;;;;;;;5053873;28;20250;-78
2020/12/22 03:33:51;;;;;;;58.73;20.93;;;;;;;;;;5058203;28;20202;-78
2020/12/22 03:36:56;;;;;;;56.03;20.33;;;;;;;;;;5067508;28;20211;-77
2020/12/22 03:40:04;;;;;;;54.67;19.33;;;;;;;;;;5064473;28;20203;-77
2020/12/22 03:43:09;;;;;;;54.20;19.07;;;;;;;;;;5047365;28;20265;-78
2020/12/22 03:46:14;;;;;;;51.97;18.37;;;;;;;;;;5057169;28;20619;-76
2020/12/22 03:49:19;;;;;;;51.03;20.37;;;;;;;;;;5056448;28;20225;-79
2020/12/22 03:52:24;;;;;;;47.43;17.23;;;;;;;;;;5043001;28;20307;-77
2020/12/22 03:55:30;;;;;;;40.97;16.17;;;;;;;;;;5043097;28;20233;-78
2020/12/22 03:58:35;;;;;;;46.67;17.00;;;;;;;;;;5035898;28;20195;-78
2020/12/22 04:01:39;;;;;;;41.53;15.00;;;;;;;;;;5042189;28;20243;-77
2020/12/22 04:04:43;;;;;;;45.70;16.33;;;;;;;;;;5044971;28;20208;-76
2020/12/22 04:07:48;;;;;;;41.23;15.33;;;;;;;;;;5053768;28;20238;-78
2020/12/22 04:10:55;;;;;;;41.20;16.00;;;;;;;;;;5025382;28;20187;-77
2020/12/22 04:13:59;;;;;;;39.07;14.70;;;;;;;;;;5033025;28;20498;-78
2020/12/22 04:17:04;;;;;;;41.43;15.00;;;;;;;;;;5046016;28;20231;-77
2020/12/22 04:20:09;;;;;;;40.77;14.17;;;;;;;;;;5036929;28;20201;-78
2020/12/22 04:23:14;;;;;;;40.97;15.20;;;;;;;;;;5032973;28;20223;-78
2020/12/22 04:26:19;;;;;;;31.47;13.80;;;;;;;;;;5054856;28;20280;-78
2020/12/22 04:29:24;;;;;;;30.70;13.00;;;;;;;;;;5043246;28;20614;-77
2020/12/22 04:32:28;;;;;;;35.63;13.70;;;;;;;;;;5045777;28;20286;-78
2020/12/22 04:35:33;;;;;;;31.60;13.07;;;;;;;;;;5059090;28;20226;-77
2020/12/22 04:38:38;;;;;;;30.80;12.63;;;;;;;;;;5042678;28;20211;-77
2020/12/22 04:41:45;;;;;;;26.73;10.37;;;;;;;;;;5045550;28;20282;-78
2020/12/22 04:44:50;;;;;;;24.50;10.20;;;;;;;;;;5045582;28;20219;-79
2020/12/22 04:47:55;;;;;;;24.70;9.90;;;;;;;;;;5041084;28;20200;-77
2020/12/22 04:51:00;;;;;;;22.80;9.40;;;;;;;;;;5043001;28;20307;-78
2020/12/22 04:54:04;;;;;;;27.57;10.97;;;;;;;;;;5043106;28;20273;-78
2020/12/22 04:57:12;;;;;;;27.57;11.13;;;;;;;;;;5042220;28;20293;-78
2020/12/22 05:00:17;;;;;;;26.50;10.90;;;;;;;;;;5042706;28;20296;-79
2020/12/22 05:03:22;;;;;;;26.97;11.17;;;;;;;;;;5040829;28;20200;-77
2020/12/22 05:06:27;;;;;;;24.40;11.13;;;;;;;;;;5047634;28;20223;-79
2020/12/22 05:09:32;;;;;;;22.63;9.87;;;;;;;;;;5038390;28;20192;-77
2020/12/22 05:12:39;;;;;;;22.20;8.93;;;;;;;;;;5035057;28;20231;-78
2020/12/22 05:15:44;;;;;;;20.63;8.50;;;;;;;;;;5042119;28;20202;-77
2020/12/22 05:18:49;;;;;;;21.33;8.00;;;;;;;;;;5053916;28;20202;-78
2020/12/22 05:21:55;;;;;;;18.43;8.30;;;;;;;;;;5021627;28;20274;-77
2020/12/22 05:25:00;;;;;;;14.20;6.63;;;;;;;;;;5049295;28;20246;-77
2020/12/22 05:28:07;;;;;;;14.87;7.23;;;;;;;;;;5053542;28;20249;-78
2020/12/22 05:31:15;;;;;;;13.50;6.23;;;;;;;;;;5043685;28;20265;-78
2020/12/22 05:34:21;;;;;;;13.80;6.17;;;;;;;;;;5044640;28;20211;-78
2020/12/22 05:37:26;;;;;;;12.10;5.67;;;;;;;;;;5036880;28;20211;-77
2020/12/22 05:40:31;;;;;;;16.23;6.27;;;;;;;;;;5052391;28;20210;-77
2020/12/22 05:43:40;;;;;;;17.27;7.07;;;;;;;;;;5044216;28;20691;-77
2020/12/22 05:46:49;;;;;;;14.70;6.87;;;;;;;;;;5042870;28;20212;-77
2020/12/22 05:49:54;;;;;;;13.07;6.33;;;;;;;;;;5045412;28;20230;-77
2020/12/22 05:52:59;;;;;;;15.07;6.83;;;;;;;;;;5046016;28;20215;-77
2020/12/22 05:56:14;;;;;;;13.27;6.43;;;;;;;;;;5042894;28;20219;-78
2020/12/22 05:59:20;;;;;;;13.00;6.63;;;;;;;;;;5047454;28;20211;-77
2020/12/22 06:02:26;;;;;;;13.17;5.70;;;;;;;;;;5040567;28;20761;-77
2020/12/22 06:05:32;;;;;;;14.03;5.87;;;;;;;;;;5054877;28;20230;-77
2020/12/22 06:08:39;;;;;;;11.90;5.90;;;;;;;;;;5054696;28;20198;-78
2020/12/22 06:11:43;;;;;;;12.93;6.50;;;;;;;;;;5038490;28;20227;-77
2020/12/22 06:14:50;;;;;;;11.90;5.97;;;;;;;;;;5038888;28;20678;-77
2020/12/22 06:17:54;;;;;;;12.47;6.30;;;;;;;;;;5038436;28;20281;-77
2020/12/22 06:20:59;;;;;;;14.83;6.80;;;;;;;;;;5032529;28;20230;-78
2020/12/22 06:24:04;;;;;;;16.17;8.13;;;;;;;;;;5045608;28;20282;-76
2020/12/22 06:27:09;;;;;;;13.73;6.00;;;;;;;;;;5043012;28;20199;-77
2020/12/22 06:30:15;;;;;;;12.80;6.33;;;;;;;;;;5052012;28;20209;-78
2020/12/22 06:33:21;;;;;;;14.27;6.07;;;;;;;;;;5051082;28;20252;-78
2020/12/22 06:36:26;;;;;;;11.97;5.97;;;;;;;;;;5059854;28;20210;-78
2020/12/22 06:39:49;;;;;;;14.20;7.13;;;;;;;;;;5053897;28;20195;-78
2020/12/22 06:42:55;;;;;;;19.77;6.80;;;;;;;;;;5057685;28;20726;-78
2020/12/22 06:46:00;;;;;;;13.23;6.87;;;;;;;;;;5056912;28;20350;-78
2020/12/22 06:49:06;;;;;;;15.33;6.40;;;;;;;;;;5050203;28;20219;-78
2020/12/22 06:52:26;;;;;;;13.30;5.93;;;;;;;;;;5056858;28;20241;-79
2020/12/22 06:55:46;;;;;;;12.47;6.10;;;;;;;;;;5062147;28;20207;-79
2020/12/22 06:58:50;;;;;;;13.17;6.23;;;;;;;;;;5050046;28;20263;-77
2020/12/22 07:01:58;;;;;;;10.80;5.43;;;;;;;;;;5073703;28;20230;-77
2020/12/22 07:05:03;;;;;;;13.60;6.97;;;;;;;;;;5080562;28;20178;-77
2020/12/22 07:08:10;;;;;;;13.57;6.77;;;;;;;;;;5072450;28;20192;-80
2020/12/22 07:11:19;;;;;;;13.00;6.10;;;;;;;;;;5036306;28;20266;-78
2020/12/22 07:14:25;;;;;;;14.27;6.00;;;;;;;;;;5055328;28;20234;-78
2020/12/22 07:17:32;;;;;;;11.80;6.40;;;;;;;;;;5042756;28;20203;-77
2020/12/22 07:20:38;;;;;;;15.67;6.60;;;;;;;;;;5051522;28;20757;-77
2020/12/22 07:23:43;;;;;;;18.70;8.63;;;;;;;;;;5046586;28;20295;-77
2020/12/22 07:26:48;;;;;;;15.97;9.37;;;;;;;;;;5055065;28;20226;-78
2020/12/22 07:29:53;;;;;;;15.97;6.60;;;;;;;;;;5056528;28;20243;-78
2020/12/22 07:33:00;;;;;;;11.83;5.93;;;;;;;;;;5054043;28;20250;-77
2020/12/22 07:36:04;;;;;;;10.73;4.60;;;;;;;;;;5056322;28;20230;-77
2020/12/22 07:39:16;;;;;;;9.70;5.30;;;;;;;;;;5053905;28;20306;-78
2020/12/22 07:42:21;;;;;;;10.67;5.70;;;;;;;;;;5062889;28;20269;-76
2020/12/22 07:45:26;;;;;;;13.27;5.70;;;;;;;;;;5066298;28;20210;-77
2020/12/22 07:48:35;;;;;;;10.03;4.27;;;;;;;;;;5049428;28;20242;-77
2020/12/22 07:51:42;;;;;;;10.53;4.70;;;;;;;;;;5038692;28;20634;-77
2020/12/22 07:54:57;;;;;;;10.90;4.83;;;;;;;;;;5048909;28;20681;-78
2020/12/22 07:58:02;;;;;;;8.80;5.50;;;;;;;;;;5052199;28;20662;-78
2020/12/22 08:01:06;;;;;;;7.93;3.97;;;;;;;;;;5029400;28;20393;-78
2020/12/22 08:04:16;;;;;;;7.33;4.30;;;;;;;;;;5044887;28;20623;-78
2020/12/22 08:07:21;;;;;;;8.83;4.10;;;;;;;;;;5054472;28;20215;-79
2020/12/22 08:10:26;;;;;;;6.73;4.20;;;;;;;;;;5046856;28;20195;-78
2020/12/22 08:13:32;;;;;;;9.10;4.50;;;;;;;;;;5051792;28;20314;-79
2020/12/22 08:16:37;;;;;;;10.93;4.13;;;;;;;;;;5051200;28;20239;-77
2020/12/22 08:19:47;;;;;;;7.73;4.27;;;;;;;;;;5049606;28;20212;-79
2020/12/22 08:22:53;;;;;;;7.93;4.70;;;;;;;;;;5062165;28;20234;-78
2020/12/22 08:25:59;;;;;;;7.90;4.53;;;;;;;;;;5054972;28;20249;-79
2020/12/22 08:29:05;;;;;;;10.17;4.53;;;;;;;;;;5061029;28;20218;-79
2020/12/22 08:32:13;;;;;;;15.57;6.63;;;;;;;;;;5052006;28;20222;-78
2020/12/22 08:35:21;;;;;;;9.37;5.30;;;;;;;;;;5054629;28;20214;-78
2020/12/22 08:38:28;;;;;;;8.23;5.00;;;;;;;;;;5045899;28;20235;-78
2020/12/22 08:41:33;;;;;;;8.53;4.70;;;;;;;;;;5053185;28;20246;-79
2020/12/22 08:44:39;;;;;;;12.47;6.10;;;;;;;;;;5044773;28;20223;-80
2020/12/22 08:47:51;;;;;;;16.30;8.47;;;;;;;;;;5049193;28;20672;-79
2020/12/22 08:50:56;;;;;;;11.40;6.70;;;;;;;;;;5047654;28;20584;-79
2020/12/22 08:54:02;;;;;;;10.00;5.43;;;;;;;;;;5063347;28;20214;-79
2020/12/22 08:57:11;;;;;;;9.63;5.63;;;;;;;;;;5043768;28;20183;-77
2020/12/22 09:00:17;;;;;;;10.03;5.03;;;;;;;;;;5064759;28;20191;-79
2020/12/22 09:03:22;;;;;;;12.47;5.40;;;;;;;;;;5068154;28;20283;-79
2020/12/22 09:06:36;;;;;;;9.87;5.30;;;;;;;;;;5038326;28;20258;-78
2020/12/22 09:09:40;;;;;;;9.17;4.67;;;;;;;;;;5049886;28;20295;-79
2020/12/22 09:12:45;;;;;;;11.47;6.20;;;;;;;;;;5047731;28;20226;-79
2020/12/22 09:15:54;;;;;;;9.00;5.33;;;;;;;;;;5036672;28;20199;-78
2020/12/22 09:19:05;;;;;;;11.37;6.23;;;;;;;;;;5054083;28;20203;-79
2020/12/22 09:22:11;;;;;;;9.93;4.90;;;;;;;;;;5059340;28;20349;-79
2020/12/22 09:25:15;;;;;;;8.13;5.13;;;;;;;;;;5047901;28;20203;-78
2020/12/22 09:28:20;;;;;;;9.83;5.10;;;;;;;;;;5031343;28;20585;-76
2020/12/22 09:31:26;;;;;;;9.00;4.80;;;;;;;;;;5044046;28;20339;-76
2020/12/22 09:34:32;;;;;;;7.87;4.53;;;;;;;;;;5032845;28;20254;-76
2020/12/22 09:37:39;;;;;;;8.00;4.63;;;;;;;;;;5039016;28;20307;-76
2020/12/22 09:40:44;;;;;;;8.07;5.33;;;;;;;;;;5026848;28;20195;-76
2020/12/22 09:43:49;;;;;;;9.27;3.77;;;;;;;;;;5051018;28;20303;-76
2020/12/22 09:46:54;;;;;;;9.80;4.87;;;;;;;;;;5053052;28;20202;-76
2020/12/22 09:49:58;;;;;;;7.90;4.50;;;;;;;;;;5036636;28;20198;-77
2020/12/22 09:53:04;;;;;;;10.80;5.47;;;;;;;;;;5039927;28;20204;-78
2020/12/22 09:56:12;;;;;;;10.90;4.80;;;;;;;;;;5043674;28;20207;-78
2020/12/22 09:59:18;;;;;;;10.73;4.90;;;;;;;;;;5046102;28;20265;-78
2020/12/22 10:02:23;;;;;;;9.50;5.53;;;;;;;;;;5052954;28;20372;-78
2020/12/22 10:05:27;;;;;;;7.33;4.40;;;;;;;;;;5058853;28;20237;-78
2020/12/22 10:08:33;;;;;;;8.60;4.87;;;;;;;;;;5059362;28;20234;-77
2020/12/22 10:11:39;;;;;;;10.30;5.80;;;;;;;;;;5036358;28;20245;-77
2020/12/22 10:14:43;;;;;;;9.73;5.03;;;;;;;;;;5036559;28;20331;-77
2020/12/22 10:17:48;;;;;;;10.33;6.27;;;;;;;;;;5050857;28;20211;-77
2020/12/22 10:20:52;;;;;;;10.33;4.80;;;;;;;;;;5040136;28;20196;-76
2020/12/22 10:24:04;;;;;;;10.47;5.30;;;;;;;;;;5034447;28;20222;-76
2020/12/22 10:27:09;;;;;;;10.97;6.03;;;;;;;;;;5038000;28;20208;-76
2020/12/22 10:30:14;;;;;;;9.53;5.80;;;;;;;;;;5030001;28;20188;-76
2020/12/22 10:33:19;;;;;;;9.13;5.50;;;;;;;;;;5043058;28;20318;-76
2020/12/22 10:36:27;;;;;;;12.77;6.33;;;;;;;;;;5037891;28;20215;-76
2020/12/22 10:39:33;;;;;;;11.17;5.77;;;;;;;;;;5049862;28;20275;-77
2020/12/22 10:42:54;;;;;;;11.57;5.77;;;;;;;;;;5042902;28;20307;-76
2020/12/22 10:46:05;;;;;;;12.30;6.23;;;;;;;;;;5033173;28;20258;-76
2020/12/22 10:49:11;;;;;;;10.03;6.10;;;;;;;;;;5021968;28;20204;-77
2020/12/22 10:52:15;;;;;;;18.63;10.50;;;;;;;;;;5053647;28;20231;-76
2020/12/22 10:55:23;;;;;;;15.10;6.40;;;;;;;;;;5056343;28;20203;-77
2020/12/22 10:58:27;;;;;;;10.70;6.03;;;;;;;;;;5041940;28;20208;-76
2020/12/22 11:01:34;;;;;;;12.43;6.07;;;;;;;;;;5043150;28;20290;-77
2020/12/22 11:04:38;;;;;;;15.47;6.83;;;;;;;;;;5045023;28;20203;-77
2020/12/22 11:07:47;;;;;;;15.57;7.53;;;;;;;;;;5047121;28;20211;-77
2020/12/22 11:10:53;;;;;;;17.83;7.80;;;;;;;;;;5052719;28;20242;-77
2020/12/22 11:13:58;;;;;;;11.07;6.70;;;;;;;;;;5037443;28;20211;-77
2020/12/22 11:17:02;;;;;;;12.73;6.37;;;;;;;;;;5043130;28;20194;-77
2020/12/22 11:20:07;;;;;;;10.80;6.17;;;;;;;;;;5035317;28;20275;-77
2020/12/22 11:23:11;;;;;;;14.80;7.33;;;;;;;;;;5042393;28;20227;-76
2020/12/22 11:26:17;;;;;;;15.97;7.00;;;;;;;;;;5049295;28;20203;-77
2020/12/22 11:29:25;;;;;;;15.67;7.43;;;;;;;;;;5043391;28;20219;-76
2020/12/22 11:32:30;;;;;;;13.57;7.73;;;;;;;;;;5039295;28;20242;-78
2020/12/22 11:35:35;;;;;;;12.70;6.80;;;;;;;;;;5036458;28;20266;-76
2020/12/22 11:38:40;;;;;;;17.87;9.10;;;;;;;;;;5038084;28;20262;-76
2020/12/22 11:41:45;;;;;;;21.07;9.83;;;;;;;;;;5042072;28;20235;-76
2020/12/22 11:44:50;;;;;;;17.37;7.97;;;;;;;;;;5051241;28;20632;-76
2020/12/22 11:47:54;;;;;;;14.17;8.10;;;;;;;;;;5037407;28;20339;-76
2020/12/22 11:50:59;;;;;;;15.30;7.23;;;;;;;;;;5033457;28;20251;-76
2020/12/22 11:54:04;;;;;;;11.90;7.00;;;;;;;;;;5044173;28;20206;-77
2020/12/22 11:57:11;;;;;;;14.40;7.80;;;;;;;;;;5028331;28;20196;-77
2020/12/22 12:00:15;;;;;;;12.90;7.43;;;;;;;;;;5046396;28;20814;-76
2020/12/22 12:03:22;;;;;;;11.37;6.80;;;;;;;;;;5036693;28;20714;-76
2020/12/22 12:06:27;;;;;;;18.67;9.20;;;;;;;;;;5018257;28;20208;-75
2020/12/22 12:09:32;;;;;;;11.77;6.57;;;;;;;;;;5051529;28;20584;-76
2020/12/22 12:12:38;;;;;;;13.43;7.10;;;;;;;;;;5034893;28;20650;-76
2020/12/22 12:15:43;;;;;;;12.87;7.53;;;;;;;;;;5042750;28;20675;-76
2020/12/22 12:18:48;;;;;;;19.67;8.60;;;;;;;;;;5037630;28;20211;-75
2020/12/22 12:21:56;;;;;;;16.50;8.30;;;;;;;;;;5047683;28;21913;-75
2020/12/22 12:25:01;;;;;;;10.27;6.70;;;;;;;;;;5043957;28;20277;-75
2020/12/22 12:28:10;;;;;;;13.50;7.40;;;;;;;;;;5045079;28;20211;-76
2020/12/22 12:31:16;;;;;;;13.80;7.33;;;;;;;;;;5029392;28;20646;-76
2020/12/22 12:34:21;;;;;;;14.30;7.50;;;;;;;;;;5031264;28;20632;-76
2020/12/22 12:37:26;;;;;;;13.73;7.63;;;;;;;;;;5034972;28;20233;-77
2020/12/22 12:40:30;;;;;;;11.90;6.87;;;;;;;;;;5035161;28;20257;-75
2020/12/22 12:43:36;;;;;;;11.97;7.00;;;;;;;;;;5031353;28;20204;-76
2020/12/22 12:46:41;;;;;;;14.03;7.27;;;;;;;;;;5036590;28;20207;-77
2020/12/22 12:49:45;;;;;;;12.23;7.30;;;;;;;;;;5030733;28;20208;-77
2020/12/22 12:52:50;;;;;;;16.07;7.07;;;;;;;;;;5032458;28;20601;-76
2020/12/22 12:55:54;;;;;;;11.30;7.10;;;;;;;;;;5031954;28;20687;-76
2020/12/22 12:59:00;;;;;;;11.60;7.10;;;;;;;;;;5031931;28;20211;-76
2020/12/22 13:02:05;;;;;;;14.63;7.63;;;;;;;;;;5025999;28;20219;-76
2020/12/22 13:05:09;;;;;;;13.97;7.50;;;;;;;;;;5050602;28;20756;-76
2020/12/22 13:08:14;;;;;;;12.17;7.10;;;;;;;;;;5033765;28;20253;-77
2020/12/22 13:11:18;;;;;;;12.00;6.70;;;;;;;;;;5045449;28;20616;-76
2020/12/22 13:14:23;;;;;;;18.83;8.03;;;;;;;;;;5033991;28;20203;-77
2020/12/22 13:17:28;;;;;;;12.10;6.40;;;;;;;;;;5035679;28;20234;-76
2020/12/22 13:20:33;;;;;;;11.03;6.83;;;;;;;;;;5043869;28;20199;-77
2020/12/22 13:23:40;;;;;;;15.23;7.40;;;;;;;;;;5038315;28;20216;-76
2020/12/22 13:26:45;;;;;;;13.80;8.13;;;;;;;;;;5032981;28;20238;-76
2020/12/22 13:29:53;;;;;;;13.50;7.97;;;;;;;;;;5035170;28;20306;-78
2020/12/22 13:32:59;;;;;;;17.03;9.07;;;;;;;;;;5045690;28;20292;-76
2020/12/22 13:36:04;;;;;;;16.57;10.27;;;;;;;;;;5031535;28;20586;-77
2020/12/22 13:39:08;;;;;;;16.90;8.53;;;;;;;;;;5036803;28;20243;-76
2020/12/22 13:42:13;;;;;;;15.00;8.37;;;;;;;;;;5039116;28;20235;-77
2020/12/22 13:45:19;;;;;;;16.73;8.30;;;;;;;;;;5035071;28;20250;-77
2020/12/22 13:48:24;;;;;;;14.00;7.87;;;;;;;;;;5031447;28;20208;-76
2020/12/22 13:51:29;;;;;;;16.07;8.20;;;;;;;;;;5030984;28;20230;-76
2020/12/22 13:54:35;;;;;;;15.03;8.53;;;;;;;;;;5027764;28;20195;-76
2020/12/22 13:57:40;;;;;;;15.57;8.37;;;;;;;;;;5031085;28;20278;-76
2020/12/22 14:00:46;;;;;;;13.30;7.27;;;;;;;;;;5011318;28;20251;-77
2020/12/22 14:03:50;;;;;;;16.97;9.63;;;;;;;;;;5035212;28;20710;-76
2020/12/22 14:06:55;;;;;;;17.33;8.57;;;;;;;;;;5030891;28;20219;-76
2020/12/22 14:10:00;;;;;;;18.63;10.27;;;;;;;;;;5023450;28;20207;-78
2020/12/22 14:13:05;;;;;;;15.57;8.70;;;;;;;;;;5030651;28;20250;-77
2020/12/22 14:16:13;;;;;;;15.33;8.50;;;;;;;;;;5041139;28;20207;-77
2020/12/22 14:19:19;;;;;;;15.20;8.67;;;;;;;;;;5030787;28;20721;-77
2020/12/22 14:22:24;;;;;;;15.27;8.37;;;;;;;;;;5030899;28;20236;-76
2020/12/22 14:25:28;;;;;;;39.93;17.63;;;;;;;;;;5028564;28;20247;-77
2020/12/22 14:28:33;;;;;;;27.07;13.60;;;;;;;;;;5029755;28;20258;-77
2020/12/22 14:31:39;;;;;;;19.47;11.33;;;;;;;;;;5030393;28;20660;-77
2020/12/22 14:34:44;;;;;;;18.17;9.43;;;;;;;;;;5028073;28;20302;-76
2020/12/22 14:37:48;;;;;;;17.67;11.20;;;;;;;;;;5033120;28;20926;-77
2020/12/22 14:40:54;;;;;;;17.90;10.50;;;;;;;;;;5030460;28;20274;-77
2020/12/22 14:44:00;;;;;;;21.03;10.47;;;;;;;;;;5034131;28;20567;-77
2020/12/22 14:47:05;;;;;;;16.77;9.47;;;;;;;;;;5037840;28;20386;-74
2020/12/22 14:50:10;;;;;;;17.90;9.33;;;;;;;;;;5035044;28;20262;-75
2020/12/22 14:53:14;;;;;;;16.53;8.87;;;;;;;;;;5033172;28;20722;-75
2020/12/22 14:56:21;;;;;;;14.33;8.33;;;;;;;;;;5032842;28;20211;-75
2020/12/22 14:59:26;;;;;;;17.53;10.60;;;;;;;;;;5035367;28;20227;-75
2020/12/22 15:02:32;;;;;;;15.33;8.90;;;;;;;;;;5032602;28;20227;-75
2020/12/22 15:05:36;;;;;;;14.47;7.90;;;;;;;;;;5035569;28;20334;-75
2020/12/22 15:08:41;;;;;;;12.97;7.93;;;;;;;;;;5035166;28;20235;-75
2020/12/22 15:11:48;;;;;;;13.97;8.17;;;;;;;;;;5020756;28;20298;-76
2020/12/22 15:14:52;;;;;;;14.03;8.67;;;;;;;;;;5035133;28;20211;-75
2020/12/22 15:17:58;;;;;;;16.43;9.10;;;;;;;;;;5030653;28;20204;-76
2020/12/22 15:21:03;;;;;;;14.73;8.47;;;;;;;;;;5051811;28;20231;-75
2020/12/22 15:24:08;;;;;;;16.00;9.97;;;;;;;;;;5058190;28;20172;-74
2020/12/22 15:27:13;;;;;;;16.90;10.63;;;;;;;;;;5070853;28;20199;-74
2020/12/22 15:30:18;;;;;;;19.67;11.10;;;;;;;;;;5059236;28;20184;-75
2020/12/22 15:33:24;;;;;;;34.40;16.90;;;;;;;;;;5063279;28;20182;-75
2020/12/22 15:36:29;;;;;;;16.13;10.00;;;;;;;;;;5054521;28;20202;-76
2020/12/22 15:39:35;;;;;;;15.90;9.53;;;;;;;;;;5044184;28;20595;-75
2020/12/22 15:42:41;;;;;;;16.67;9.10;;;;;;;;;;5047168;28;20327;-76
2020/12/22 15:45:47;;;;;;;16.73;9.27;;;;;;;;;;5045233;28;20265;-75
2020/12/22 15:48:53;;;;;;;17.87;9.73;;;;;;;;;;5059769;28;20280;-76
2020/12/22 15:51:58;;;;;;;20.43;10.07;;;;;;;;;;5031656;28;20242;-75
2020/12/22 15:55:02;;;;;;;19.77;11.63;;;;;;;;;;5032837;28;20214;-76
2020/12/22 15:58:07;;;;;;;20.93;11.63;;;;;;;;;;5040880;28;20192;-78
2020/12/22 16:01:17;;;;;;;30.00;16.40;;;;;;;;;;5026231;28;20769;-76
2020/12/22 16:04:24;;;;;;;23.83;13.70;;;;;;;;;;5054355;28;20207;-76
2020/12/22 16:07:29;;;;;;;44.20;22.80;;;;;;;;;;5036218;28;20239;-77
2020/12/22 16:10:34;;;;;;;35.97;18.73;;;;;;;;;;5038017;28;20207;-76
2020/12/22 16:13:39;;;;;;;26.07;13.30;;;;;;;;;;5028693;28;20600;-76
2020/12/22 16:16:44;;;;;;;20.57;11.70;;;;;;;;;;5074428;28;20207;-75
2020/12/22 16:19:50;;;;;;;19.73;11.53;;;;;;;;;;5055550;28;20214;-75
2020/12/22 16:22:54;;;;;;;26.33;13.03;;;;;;;;;;5062392;28;20255;-75
2020/12/22 16:25:59;;;;;;;23.93;12.40;;;;;;;;;;5041757;28;20203;-75
2020/12/22 16:29:08;;;;;;;24.70;12.53;;;;;;;;;;5038102;28;20258;-75
2020/12/22 16:32:24;;;;;;;30.10;15.90;;;;;;;;;;5049440;28;20299;-75
2020/12/22 16:35:33;;;;;;;22.90;12.23;;;;;;;;;;5033929;28;20215;-76
2020/12/22 16:38:39;;;;;;;24.47;13.67;;;;;;;;;;5035728;28;20227;-76
2020/12/22 16:41:49;;;;;;;19.90;11.23;;;;;;;;;;5038381;28;20246;-76
2020/12/22 16:44:53;;;;;;;21.33;11.67;;;;;;;;;;5039244;28;20227;-76
2020/12/22 16:47:58;;;;;;;23.43;12.67;;;;;;;;;;5032599;28;20262;-76
2020/12/22 16:51:03;;;;;;;24.87;13.97;;;;;;;;;;5035807;28;20323;-76
2020/12/22 16:54:08;;;;;;;23.80;13.37;;;;;;;;;;5056184;28;20712;-76
2020/12/22 16:57:12;;;;;;;22.10;10.90;;;;;;;;;;5029868;28;20203;-76
2020/12/22 17:00:17;;;;;;;24.33;11.17;;;;;;;;;;5049695;28;20210;-77
2020/12/22 17:03:22;;;;;;;25.87;11.77;;;;;;;;;;5022511;28;20289;-76
2020/12/22 17:06:34;;;;;;;23.23;11.47;;;;;;;;;;5045971;28;20235;-76
2020/12/22 17:09:39;;;;;;;23.23;11.37;;;;;;;;;;5038231;28;20330;-76
2020/12/22 17:12:44;;;;;;;23.03;11.90;;;;;;;;;;5045705;28;20754;-76
2020/12/22 17:15:48;;;;;;;21.77;11.27;;;;;;;;;;5041477;28;20242;-75
2020/12/22 17:18:55;;;;;;;23.33;11.77;;;;;;;;;;5045680;28;20199;-77
2020/12/22 17:22:01;;;;;;;23.90;11.97;;;;;;;;;;5054695;28;20214;-77
2020/12/22 17:25:07;;;;;;;24.20;11.80;;;;;;;;;;5056517;28;20191;-76
2020/12/22 17:28:11;;;;;;;20.63;11.33;;;;;;;;;;5055170;28;20204;-76
2020/12/22 17:31:16;;;;;;;18.60;10.27;;;;;;;;;;5034743;28;20238;-76
2020/12/22 17:34:21;;;;;;;23.57;10.17;;;;;;;;;;5026243;28;20266;-76
2020/12/22 17:37:28;;;;;;;18.50;10.67;;;;;;;;;;5037450;28;20255;-76
2020/12/22 17:40:32;;;;;;;18.63;10.37;;;;;;;;;;5036642;28;20251;-77
2020/12/22 17:43:37;;;;;;;18.73;10.40;;;;;;;;;;5035811;28;20302;-77
2020/12/22 17:46:41;;;;;;;20.37;10.07;;;;;;;;;;5033033;28;21089;-76
2020/12/22 17:49:47;;;;;;;18.37;9.83;;;;;;;;;;5013961;28;20243;-76
2020/12/22 17:52:52;;;;;;;18.77;10.13;;;;;;;;;;5034101;28;20347;-76
2020/12/22 17:55:57;;;;;;;19.93;10.20;;;;;;;;;;5038989;28;20255;-77
2020/12/22 17:59:01;;;;;;;18.77;10.00;;;;;;;;;;5024390;28;20722;-77
2020/12/22 18:02:09;;;;;;;19.47;9.83;;;;;;;;;;5045779;28;20230;-77
2020/12/22 18:05:13;;;;;;;22.00;11.33;;;;;;;;;;5057421;28;20207;-77
2020/12/22 18:08:19;;;;;;;19.40;10.73;;;;;;;;;;5055496;28;20198;-77
2020/12/22 18:11:25;;;;;;;29.03;13.97;;;;;;;;;;5046452;28;20233;-76